createdAt,value
2018-10-19T00:01:47.621Z,102086.80
2018-10-19T00:04:51.713Z,102094.02
2018-10-19T00:07:55.975Z,102091.46
2018-10-19T00:11:00.282Z,102096.15
2018-10-19T00:14:04.640Z,102095.33
2018-10-19T00:17:08.539Z,102100.42
2018-10-19T00:20:12.606Z,102099.13
2018-10-19T00:23:16.482Z,102095.33
2018-10-19T00:26:20.909Z,102096.60
2018-10-19T00:29:24.793Z,102102.96
2018-10-19T00:32:28.690Z,102101.69
2018-10-19T00:35:32.591Z,102089.39
2018-10-19T00:38:36.504Z,102090.25
2018-10-19T00:41:40.513Z,102089.02
2018-10-19T00:44:44.454Z,102087.73
2018-10-19T00:47:48.829Z,102083.90
2018-10-19T00:50:52.724Z,102083.06
2018-10-19T00:53:57.159Z,102080.95
2018-10-19T00:57:01.260Z,102083.48
2018-10-19T01:00:05.683Z,102086.48
2018-10-19T01:03:10.044Z,102080.54
2018-10-19T01:06:14.381Z,102078.00
2018-10-19T01:09:18.275Z,102075.45
2018-10-19T01:12:22.163Z,102072.05
2018-10-19T01:15:27.417Z,102082.22
2018-10-19T01:18:31.304Z,102077.14
2018-10-19T01:21:35.529Z,102075.86
2018-10-19T01:24:39.406Z,102083.09
2018-10-19T01:27:43.344Z,102075.05
2018-10-19T01:30:47.233Z,102077.14
2018-10-19T01:33:51.460Z,102075.05
2018-10-19T01:36:55.342Z,102073.77
2018-10-19T01:39:59.226Z,102072.51
2018-10-19T01:43:03.382Z,102074.64
2018-10-19T01:46:07.634Z,102072.92
2018-10-19T01:49:11.513Z,102072.50
2018-10-19T01:52:15.618Z,102072.08
2018-10-19T01:55:19.494Z,102074.19
2018-10-19T01:58:23.379Z,102079.71
2018-10-19T02:01:27.590Z,102080.98
2018-10-19T02:04:31.492Z,102074.60
2018-10-19T02:07:35.400Z,102080.14
2018-10-19T02:10:39.890Z,102080.09
2018-10-19T02:13:43.772Z,102075.05
2018-10-19T02:16:47.839Z,102078.41
2018-10-19T02:19:52.245Z,102081.81
2018-10-19T02:22:56.224Z,102080.55
2018-10-19T02:26:00.310Z,102078.86
2018-10-19T02:29:04.434Z,102082.64
2018-10-19T02:32:08.482Z,102080.53
2018-10-19T02:35:13.037Z,102085.61
2018-10-19T02:38:17.028Z,102086.04
2018-10-19T02:41:21.458Z,102086.44
2018-10-19T02:44:25.384Z,102082.22
2018-10-19T02:47:29.486Z,102083.50
2018-10-19T02:50:33.383Z,102082.65
2018-10-19T02:53:37.270Z,102082.61
2018-10-19T02:56:41.171Z,102086.02
2018-10-19T02:59:45.056Z,102081.39
2018-10-19T03:02:49.152Z,102080.94
2018-10-19T03:05:53.022Z,102080.48
2018-10-19T03:08:56.968Z,102075.80
2018-10-19T03:12:00.986Z,102085.54
2018-10-19T03:15:06.407Z,102080.46
2018-10-19T03:18:10.798Z,102074.95
2018-10-19T03:21:14.762Z,102082.58
2018-10-19T03:24:18.790Z,102089.77
2018-10-19T03:27:23.114Z,102093.12
2018-10-19T03:30:27.011Z,102092.28
2018-10-19T03:33:31.425Z,102088.92
2018-10-19T03:36:35.513Z,102084.70
2018-10-19T03:39:39.398Z,102078.77
2018-10-19T03:42:43.323Z,102085.50
2018-10-19T03:45:47.858Z,102088.50
2018-10-19T03:48:51.731Z,102088.89
2018-10-19T03:51:55.610Z,102088.08
2018-10-19T03:54:59.494Z,102086.39
2018-10-19T03:58:03.478Z,102085.97
2018-10-19T04:01:07.838Z,102097.36
2018-10-19T04:04:11.733Z,102104.55
2018-10-19T04:07:16.163Z,102098.24
2018-10-19T04:10:20.061Z,102099.94
2018-10-19T04:13:23.951Z,102103.71
2018-10-19T04:16:27.852Z,102101.59
2018-10-19T04:19:32.286Z,102104.16
2018-10-19T04:22:36.271Z,102102.44
2018-10-19T04:25:40.501Z,102104.55
2018-10-19T04:28:44.593Z,102099.05
2018-10-19T04:31:48.690Z,102101.63
2018-10-19T04:34:53.168Z,102106.74
2018-10-19T04:37:57.229Z,102100.84
2018-10-19T04:41:01.312Z,102109.31
2018-10-19T04:44:05.425Z,102099.99
2018-10-19T04:47:09.583Z,102102.09
2018-10-19T04:50:13.709Z,102107.16
2018-10-19T04:53:18.018Z,102098.27
2018-10-19T04:56:22.041Z,102099.97
2018-10-19T04:59:26.254Z,102100.84
2018-10-19T05:02:30.193Z,102102.11
2018-10-19T05:05:34.259Z,102105.08
2018-10-19T05:08:38.326Z,102106.77
2018-10-19T05:11:42.396Z,102114.39
2018-10-19T05:14:46.627Z,102116.52
2018-10-19T05:17:50.506Z,102116.09
2018-10-19T05:20:54.402Z,102110.16
2018-10-19T05:23:58.290Z,102114.81
2018-10-19T05:27:02.390Z,102108.92
2018-10-19T05:30:08.321Z,102114.42
2018-10-19T05:33:12.552Z,102114.42
2018-10-19T05:36:16.641Z,102113.57
2018-10-19T05:39:20.525Z,102112.33
2018-10-19T05:42:24.422Z,102117.40
2018-10-19T05:45:28.633Z,102121.65
2018-10-19T05:48:32.527Z,102116.14
2018-10-19T05:51:36.410Z,102119.52
2018-10-19T05:54:40.309Z,102120.37
2018-10-19T05:57:44.181Z,102122.93
2018-10-19T06:00:48.087Z,102120.37
2018-10-19T06:03:51.962Z,102119.54
2018-10-19T06:06:55.837Z,102120.39
2018-10-19T06:09:59.742Z,102121.66
2018-10-19T06:13:03.629Z,102128.02
2018-10-19T06:16:07.854Z,102134.80
2018-10-19T06:19:12.069Z,102133.95
2018-10-19T06:22:16.322Z,102132.25
2018-10-19T06:25:20.386Z,102139.45
2018-10-19T06:28:24.519Z,102130.55
2018-10-19T06:31:28.748Z,102136.91
2018-10-19T06:34:32.635Z,102138.63
2018-10-19T06:37:36.606Z,102146.69
2018-10-19T06:40:40.724Z,102153.02
2018-10-19T06:43:45.134Z,102156.86
2018-10-19T06:46:49.413Z,102149.20
2018-10-19T06:49:53.454Z,102152.16
2018-10-19T06:52:57.702Z,102154.31
2018-10-19T06:56:01.781Z,102161.94
2018-10-19T06:59:06.327Z,102161.09
2018-10-19T07:02:10.291Z,102158.09
2018-10-19T07:05:14.411Z,102169.98
2018-10-19T07:08:18.544Z,102167.44
2018-10-19T07:11:22.625Z,102175.94
2018-10-19T07:14:26.539Z,102177.62
2018-10-19T07:17:30.779Z,102167.04
2018-10-19T07:20:35.011Z,102174.67
2018-10-19T07:23:39.229Z,102176.37
2018-10-19T07:26:43.126Z,102173.83
2018-10-19T07:29:47.011Z,102177.23
2018-10-19T07:32:51.104Z,102176.77
2018-10-19T07:35:55.317Z,102179.74
2018-10-19T07:38:59.193Z,102188.22
2018-10-19T07:42:03.169Z,102183.97
2018-10-19T07:45:07.287Z,102185.62
2018-10-19T07:48:11.433Z,102180.09
2018-10-19T07:51:15.627Z,102191.52
2018-10-19T07:54:19.552Z,102188.53
2018-10-19T07:57:23.946Z,102192.30
2018-10-19T08:00:59.954Z,102195.21
2018-10-19T08:04:04.026Z,102189.59
2018-10-19T08:07:08.262Z,102190.82
2018-10-19T08:10:12.184Z,102188.62
2018-10-19T08:13:16.075Z,102185.53
2018-10-19T08:19:51.018Z,102193.41
2018-10-19T08:22:55.318Z,102191.18
2018-10-19T08:25:59.445Z,102193.19
2018-10-19T08:29:03.515Z,102199.45
2018-10-19T08:32:08.202Z,102204.03
2018-10-19T08:35:12.368Z,102206.91
2018-10-19T08:38:16.446Z,102209.37
2018-10-19T08:41:20.911Z,102213.08
2018-10-19T08:44:24.958Z,102210.85
2018-10-19T08:47:28.899Z,102211.19
2018-10-19T08:50:32.978Z,102217.06
2018-10-19T08:53:37.086Z,102213.95
2018-10-19T08:56:41.446Z,102210.10
2018-10-19T08:59:45.379Z,102214.66
2018-10-19T09:02:49.474Z,102219.28
2018-10-19T09:05:53.398Z,102226.02
2018-10-19T09:08:57.509Z,102226.79
2018-10-19T09:12:01.910Z,102222.87
2018-10-19T09:15:06.633Z,102220.76
2018-10-19T09:18:11.269Z,102219.34
2018-10-19T09:21:15.184Z,102223.14
2018-10-19T09:24:19.053Z,102212.45
2018-10-19T09:27:22.933Z,102219.64
2018-10-19T09:30:27.151Z,102219.13
2018-10-19T09:33:31.042Z,102218.61
2018-10-19T09:36:35.384Z,102222.75
2018-10-19T09:39:39.677Z,102220.13
2018-10-19T09:42:43.574Z,102226.39
2018-10-19T09:45:47.462Z,102216.97
2018-10-19T09:48:51.349Z,102212.16
2018-10-19T09:51:55.246Z,102210.38
2018-10-19T09:54:59.186Z,102204.77
2018-10-19T09:58:03.809Z,102205.92
2018-10-19T10:01:13.135Z,102199.45
2018-10-19T10:04:17.193Z,102199.39
2018-10-19T10:07:21.409Z,102197.61
2018-10-19T10:10:25.642Z,102195.86
2018-10-19T10:13:29.562Z,102189.83
2018-10-19T10:16:33.439Z,102193.16
2018-10-19T10:19:37.314Z,102189.73
2018-10-19T10:22:41.382Z,102188.84
2018-10-19T10:25:45.310Z,102189.19
2018-10-19T10:28:49.525Z,102188.34
2018-10-19T10:31:53.446Z,102192.06
2018-10-19T10:34:57.513Z,102187.34
2018-10-19T10:38:01.430Z,102185.55
2018-10-19T10:41:05.681Z,102182.03
2018-10-19T10:44:09.737Z,102173.43
2018-10-19T10:47:13.645Z,102171.20
2018-10-19T10:50:17.559Z,102178.38
2018-10-19T10:53:21.470Z,102181.69
2018-10-19T10:56:25.383Z,102176.89
2018-10-19T10:59:29.357Z,102168.20
2018-10-19T11:02:33.437Z,102178.78
2018-10-19T11:05:37.319Z,102170.54
2018-10-19T11:08:41.218Z,102172.55
2018-10-19T11:11:45.117Z,102173.72
2018-10-19T11:14:49.061Z,102171.04
2018-10-19T11:17:52.929Z,102166.27
2018-10-19T11:20:56.826Z,102167.03
2018-10-19T11:24:00.732Z,102165.67
2018-10-19T11:27:05.536Z,102164.34
2018-10-19T11:30:09.709Z,102166.42
2018-10-19T11:33:13.646Z,102162.05
2018-10-19T11:36:17.564Z,102165.42
2018-10-19T11:39:21.457Z,102167.05
2018-10-19T11:42:25.361Z,102171.71
2018-10-19T11:45:30.724Z,102164.33
2018-10-19T11:48:34.877Z,102162.07
2018-10-19T11:51:39.318Z,102165.80
2018-10-19T11:54:43.289Z,102162.34
2018-10-19T11:57:47.923Z,102155.44
2018-10-19T12:00:52.372Z,102155.84
2018-10-19T12:03:56.488Z,102148.53
2018-10-19T12:07:00.661Z,102152.70
2018-10-19T12:10:05.156Z,102148.80
2018-10-19T12:13:09.288Z,102146.23
2018-10-19T12:16:13.430Z,102139.41
2018-10-19T12:19:17.439Z,102133.38
2018-10-19T12:22:21.333Z,102141.89
2018-10-19T12:25:25.580Z,102144.41
2018-10-19T12:28:29.493Z,102136.18
2018-10-19T12:31:33.723Z,102136.58
2018-10-19T12:34:37.706Z,102137.41
2018-10-19T12:37:41.806Z,102132.19
2018-10-19T12:40:45.712Z,102120.98
2018-10-19T12:43:49.699Z,102123.55
2018-10-19T12:47:05.077Z,102114.11
2018-10-19T12:50:09.586Z,102116.19
2018-10-19T12:53:13.486Z,102111.89
2018-10-19T12:56:18.446Z,102113.14
2018-10-19T12:59:22.366Z,102109.28
2018-10-19T13:02:26.388Z,102110.12
2018-10-19T13:05:30.285Z,102104.13
2018-10-19T13:08:34.627Z,102095.59
2018-10-19T13:11:38.561Z,102092.18
2018-10-19T13:14:42.804Z,102088.73
2018-10-19T13:17:46.710Z,102086.54
2018-10-19T13:20:50.598Z,102079.67
2018-10-19T13:23:54.527Z,102083.48
2018-10-19T13:26:58.711Z,102077.90
2018-10-19T13:30:02.882Z,102077.85
2018-10-19T13:33:07.302Z,102070.09
2018-10-19T13:36:11.434Z,102074.75
2018-10-19T13:39:15.569Z,102075.14
2018-10-19T13:42:19.623Z,102081.51
2018-10-19T13:45:23.536Z,102078.89
2018-10-19T13:48:27.974Z,102072.07
2018-10-19T13:51:32.530Z,102059.57
2018-10-19T13:54:36.462Z,102062.89
2018-10-19T13:57:40.693Z,102061.60
2018-10-19T14:00:44.985Z,102060.27
2018-10-19T14:03:48.889Z,102058.53
2018-10-19T14:06:53.141Z,102050.81
2018-10-19T14:09:57.077Z,102048.15
2018-10-19T14:13:01.315Z,102048.55
2018-10-19T14:16:05.627Z,102041.23
2018-10-19T14:19:09.764Z,102029.66
2018-10-19T14:22:14.186Z,102030.05
2018-10-19T14:25:18.103Z,102039.01
2018-10-19T14:28:22.341Z,102038.12
2018-10-19T14:31:26.620Z,102040.24
2018-10-19T14:34:30.710Z,102042.47
2018-10-19T14:37:36.025Z,102038.56
2018-10-19T14:40:39.926Z,102042.07
2018-10-19T14:43:43.838Z,102042.91
2018-10-19T14:46:47.739Z,102048.89
2018-10-19T14:49:51.675Z,102048.10
2018-10-19T14:52:55.961Z,102047.31
2018-10-19T14:56:00.063Z,102046.86
2018-10-19T14:59:04.015Z,102044.39
2018-10-19T15:02:08.074Z,102044.39
2018-10-19T15:05:13.564Z,102041.04
2018-10-19T15:08:17.609Z,102053.05
2018-10-19T15:11:21.874Z,102045.30
2018-10-19T15:14:25.983Z,102038.86
2018-10-19T15:17:29.886Z,102042.70
2018-10-19T15:20:33.802Z,102040.58
2018-10-19T15:23:37.693Z,102043.56
2018-10-19T15:26:41.943Z,102040.59
2018-10-19T15:29:45.994Z,102044.94
2018-10-19T15:32:50.310Z,102035.55
2018-10-19T15:35:54.240Z,102041.67
2018-10-19T15:38:58.380Z,102044.30
2018-10-19T15:42:02.476Z,102045.69
2018-10-19T15:45:08.454Z,102045.33
2018-10-19T15:48:12.643Z,102050.18
2018-10-19T15:51:16.733Z,102047.31
2018-10-19T15:54:20.653Z,102054.75
2018-10-19T15:57:25.157Z,102053.17
2018-10-19T16:00:29.298Z,102055.44
2018-10-19T16:03:33.323Z,102055.94
2018-10-19T16:06:37.219Z,102064.57
2018-10-19T16:09:41.499Z,102056.16
2018-10-19T16:12:45.414Z,102057.14
2018-10-19T16:15:49.558Z,102056.42
2018-10-19T16:18:53.818Z,102062.10
2018-10-19T16:22:07.554Z,102067.80
2018-10-19T16:25:11.789Z,102063.66
2018-10-19T16:28:15.715Z,102074.05
2018-10-19T16:31:19.786Z,102068.65
2018-10-19T16:34:23.693Z,102071.34
2018-10-19T16:37:27.594Z,102072.80
2018-10-19T16:40:35.304Z,102073.36
2018-10-19T16:43:40.911Z,102077.33
2018-10-19T16:46:44.806Z,102078.73
2018-10-19T16:49:48.699Z,102076.00
2018-10-19T16:52:52.954Z,102077.41
2018-10-19T16:55:57.048Z,102078.00
2018-10-19T16:59:00.949Z,102079.91
2018-10-19T17:02:05.254Z,102079.22
2018-10-19T17:05:09.337Z,102082.37
2018-10-19T17:08:13.390Z,102089.32
2018-10-19T17:11:17.312Z,102094.59
2018-10-19T17:14:21.182Z,102087.84
2018-10-19T17:17:25.192Z,102097.83
2018-10-19T17:20:29.599Z,102106.94
2018-10-19T17:23:33.504Z,102104.50
2018-10-19T17:26:37.389Z,102105.11
2018-10-19T17:29:41.280Z,102104.83
2018-10-19T17:32:45.577Z,102108.73
2018-10-19T17:35:49.610Z,102099.11
2018-10-19T17:38:53.578Z,102099.63
2018-10-19T17:41:57.644Z,102103.53
2018-10-19T17:45:01.783Z,102103.27
2018-10-19T17:48:06.021Z,102104.55
2018-10-19T17:51:10.162Z,102108.06
2018-10-19T17:54:14.330Z,102111.64
2018-10-19T17:57:18.385Z,102112.13
2018-10-19T18:00:22.275Z,102112.72
2018-10-19T18:03:26.162Z,102114.54
2018-10-19T18:06:30.095Z,102119.73
2018-10-19T18:09:34.246Z,102125.84
2018-10-19T18:12:38.851Z,102127.63
2018-10-19T18:15:42.809Z,102138.31
2018-10-19T18:18:46.831Z,102134.93
2018-10-19T18:21:50.873Z,102133.28
2018-10-19T18:24:54.842Z,102133.33
2018-10-19T18:27:58.736Z,102141.93
2018-10-19T18:31:02.727Z,102145.03
2018-10-19T18:34:06.720Z,102147.65
2018-10-19T18:37:11.138Z,102145.52
2018-10-19T18:40:15.055Z,102143.06
2018-10-19T18:43:18.926Z,102144.39
2018-10-19T18:46:22.818Z,102153.02
2018-10-19T18:49:26.718Z,102160.70
2018-10-19T18:52:30.617Z,102158.66
2018-10-19T18:55:34.533Z,102146.41
2018-10-19T18:58:38.417Z,102157.51
2018-10-19T19:01:42.339Z,102162.62
2018-10-19T19:04:46.229Z,102165.25
2018-10-19T19:07:50.467Z,102168.25
2018-10-19T19:10:54.378Z,102170.07
2018-10-19T19:13:58.468Z,102172.64
2018-10-19T19:17:02.969Z,102171.36
2018-10-19T19:20:13.427Z,102175.24
2018-10-19T19:23:17.456Z,102167.66
2018-10-19T19:26:23.033Z,102174.92
2018-10-19T19:29:26.923Z,102173.64
2018-10-19T19:32:31.149Z,102168.11
2018-10-19T19:35:35.386Z,102163.93
2018-10-19T19:38:39.297Z,102164.80
2018-10-19T19:41:48.822Z,102160.97
2018-10-19T19:44:52.706Z,102161.86
2018-10-19T19:48:02.095Z,102158.50
2018-10-19T19:51:06.513Z,102164.86
2018-10-19T19:54:10.443Z,102165.34
2018-10-19T19:57:14.488Z,102160.70
2018-10-19T20:00:18.382Z,102160.73
2018-10-19T20:03:22.468Z,102160.33
2018-10-19T20:06:26.357Z,102159.90
2018-10-19T20:09:30.592Z,102168.85
2018-10-19T20:12:34.595Z,102168.02
2018-10-19T20:15:38.490Z,102155.69
2018-10-19T20:18:42.714Z,102150.20
2018-10-19T20:21:46.626Z,102145.54
2018-10-19T20:24:50.525Z,102151.52
2018-10-19T20:27:54.409Z,102154.08
2018-10-19T20:30:58.306Z,102149.88
2018-10-19T20:34:02.190Z,102148.99
2018-10-19T20:37:06.088Z,102143.09
2018-10-19T20:40:09.974Z,102143.97
2018-10-19T20:43:14.061Z,102147.40
2018-10-19T20:46:18.494Z,102151.22
2018-10-19T20:49:29.849Z,102158.01
2018-10-19T20:52:39.418Z,102165.69
2018-10-19T20:55:43.414Z,102158.48
2018-10-19T20:58:47.301Z,102167.41
2018-10-19T21:01:51.195Z,102167.83
2018-10-19T21:04:55.983Z,102175.48
2018-10-19T21:08:00.021Z,102180.15
2018-10-19T21:11:04.436Z,102181.01
2018-10-19T21:14:08.892Z,102182.29
2018-10-19T21:17:12.981Z,102186.12
2018-10-19T21:20:17.035Z,102186.13
2018-10-19T21:23:21.121Z,102189.52
2018-10-19T21:26:25.397Z,102194.19
2018-10-19T21:29:29.295Z,102188.25
2018-10-19T21:32:33.183Z,102190.80
2018-10-19T21:35:37.073Z,102187.84
2018-10-19T21:38:41.167Z,102183.18
2018-10-19T21:41:45.207Z,102178.52
2018-10-19T21:44:49.120Z,102188.67
2018-10-19T21:47:53.341Z,102184.43
2018-10-19T21:50:57.226Z,102181.05
2018-10-19T21:54:01.127Z,102176.37
2018-10-19T21:57:05.532Z,102178.05
2018-10-19T22:00:10.090Z,102178.93
2018-10-19T22:03:14.199Z,102172.55
2018-10-19T22:06:18.269Z,102175.96
2018-10-19T22:09:22.165Z,102176.37
2018-10-19T22:12:26.393Z,102176.80
2018-10-19T22:15:30.286Z,102177.64
2018-10-19T22:18:34.510Z,102179.33
2018-10-19T22:21:38.599Z,102170.84
2018-10-19T22:24:42.556Z,102169.58
2018-10-19T22:27:46.618Z,102169.98
2018-10-19T22:30:50.510Z,102169.98
2018-10-19T22:33:54.397Z,102163.62
2018-10-19T22:36:58.309Z,102166.14
2018-10-19T22:40:02.646Z,102175.48
2018-10-19T22:43:06.835Z,102182.28
2018-10-19T22:46:10.869Z,102179.32
2018-10-19T22:49:15.192Z,102189.06
2018-10-19T22:52:19.222Z,102199.25
2018-10-19T22:55:23.140Z,102203.92
2018-10-19T22:58:27.242Z,102206.88
2018-10-19T23:01:31.126Z,102200.11
2018-10-19T23:04:35.033Z,102203.92
2018-10-19T23:07:38.925Z,102206.47
2018-10-19T23:10:42.896Z,102208.58
2018-10-19T23:13:46.793Z,102200.53
2018-10-19T23:16:51.033Z,102197.54
2018-10-19T23:19:54.937Z,102206.87
2018-10-19T23:22:58.835Z,102202.23
2018-10-19T23:26:03.386Z,102208.58
2018-10-19T23:29:07.466Z,102216.66
2018-10-19T23:32:11.500Z,102217.50
2018-10-19T23:35:15.644Z,102220.04
2018-10-19T23:38:19.707Z,102220.06
2018-10-19T23:41:23.605Z,102217.49
2018-10-19T23:44:27.529Z,102206.90
2018-10-19T23:47:31.763Z,102208.59
2018-10-19T23:50:35.994Z,102205.62
2018-10-19T23:53:40.219Z,102217.50
2018-10-19T23:56:44.085Z,102209.44
2018-10-19T23:59:48.038Z,102207.30
